Time;durP1;ratioP1;P1;durP2;ratioP2;P2;SDS_P1;SDS_P2;PMS_P1;PMS_P2;Temp;Humidity;BMP_temperature;BMP_pressure;BME280_temperature;BME280_humidity;BME280_pressure;Samples;Min_cycle;Max_cycle;Signal;HPM_P1;HPM_P2
2023/05/10 00:00:11;;;;;;;0.28;0.28;;;;;;;6.72;70.16;94747.81;4943168;28;20041;-75
2023/05/10 00:02:36;;;;;;;0.30;0.30;;;;;;;6.84;69.84;94742.91;4960800;28;20066;-75
2023/05/10 00:05:02;;;;;;;0.20;0.20;;;;;;;6.44;71.60;94747.44;4962262;28;20594;-75
2023/05/10 00:07:27;;;;;;;0.22;0.22;;;;;;;6.25;72.69;94745.03;4964681;28;20256;-74
2023/05/10 00:09:53;;;;;;;0.40;0.40;;;;;;;6.49;71.88;94751.22;4965075;28;20104;-74
2023/05/10 00:12:18;;;;;;;1.55;0.40;;;;;;;6.62;71.23;94741.91;4971962;28;20042;-75
2023/05/10 00:14:43;;;;;;;0.63;0.60;;;;;;;6.88;70.04;94740.75;4949267;28;20070;-75
2023/05/10 00:17:09;;;;;;;0.45;0.45;;;;;;;7.01;70.18;94743.63;4973082;28;20431;-75
2023/05/10 00:19:34;;;;;;;2.15;0.95;;;;;;;7.04;69.73;94737.16;4947399;28;20188;-75
2023/05/10 00:22:00;;;;;;;0.52;0.52;;;;;;;6.96;70.34;94743.34;4969541;28;20397;-75
2023/05/10 00:24:25;;;;;;;1.10;0.40;;;;;;;7.03;70.01;94740.81;4934596;28;20026;-75
2023/05/10 00:26:50;;;;;;;0.52;0.50;;;;;;;7.37;68.56;94736.06;4967099;28;20035;-75
2023/05/10 00:29:16;;;;;;;0.77;0.52;;;;;;;7.22;69.13;94739.50;4969782;28;20049;-74
2023/05/10 00:31:41;;;;;;;2.08;0.60;;;;;;;7.76;67.35;94739.50;4966941;28;20263;-75
2023/05/10 00:34:07;;;;;;;0.20;0.20;;;;;;;7.12;68.75;94741.56;4971454;28;20046;-75
2023/05/10 00:36:32;;;;;;;0.40;0.40;;;;;;;7.36;68.52;94739.72;4972524;28;20030;-75
2023/05/10 00:38:57;;;;;;;0.50;0.50;;;;;;;7.19;69.16;94739.88;4970471;28;20080;-75
2023/05/10 00:41:23;;;;;;;0.20;0.20;;;;;;;7.27;68.60;94736.31;4945911;28;20489;-74
2023/05/10 00:43:48;;;;;;;0.20;0.20;;;;;;;6.39;71.99;94740.00;4965565;28;20030;-75
2023/05/10 00:46:14;;;;;;;0.10;0.10;;;;;;;6.86;70.71;94740.09;4974012;28;20132;-74
2023/05/10 00:48:39;;;;;;;0.10;0.10;;;;;;;6.75;71.23;94741.34;4964207;28;20352;-74
2023/05/10 00:51:05;;;;;;;0.40;0.40;;;;;;;7.09;69.54;94741.91;4948698;28;20053;-75
2023/05/10 00:53:31;;;;;;;1.17;0.20;;;;;;;7.50;68.50;94741.56;4948815;28;20034;-74
2023/05/10 00:55:56;;;;;;;0.30;0.30;;;;;;;7.72;67.80;94733.72;4955852;28;20109;-74
2023/05/10 00:58:23;;;;;;;0.30;0.30;;;;;;;7.50;68.44;94746.88;4948414;28;20034;-75
2023/05/10 01:00:49;;;;;;;0.20;0.20;;;;;;;6.74;71.11;94748.44;4970582;28;20031;-74
2023/05/10 01:03:14;;;;;;;0.77;0.50;;;;;;;6.82;70.86;94744.94;4944192;23;20152;-70
2023/05/10 01:05:39;;;;;;;0.80;0.68;;;;;;;6.59;71.82;94752.81;4921279;28;20698;-70
2023/05/10 01:08:05;;;;;;;2.05;0.70;;;;;;;6.59;72.16;94744.91;4922058;29;20046;-70
2023/05/10 01:10:30;;;;;;;0.75;0.52;;;;;;;6.49;72.61;94755.69;4921811;29;20047;-70
2023/05/10 01:12:56;;;;;;;1.92;0.65;;;;;;;6.39;73.38;94750.59;4922344;29;20054;-70
2023/05/10 01:15:22;;;;;;;1.90;0.45;;;;;;;6.02;74.97;94757.38;4908751;29;20063;-70
2023/05/10 01:17:47;;;;;;;5.63;0.70;;;;;;;5.87;75.41;94747.50;4924928;29;20647;-70
2023/05/10 01:20:13;;;;;;;0.60;0.60;;;;;;;5.89;75.61;94756.09;4925274;29;20531;-70
2023/05/10 01:23:00;;;;;;;0.68;0.68;;;;;;;6.27;74.47;94744.03;4926768;29;20321;-70
2023/05/10 01:25:46;;;;;;;0.70;0.70;;;;;;;6.07;74.85;94757.66;4927309;29;20156;-70
2023/05/10 01:28:39;;;;;;;0.70;0.70;;;;;;;6.52;73.11;94749.25;4932189;29;20472;-70
2023/05/10 01:31:23;;;;;;;0.60;0.60;;;;;;;5.98;74.71;94765.63;4929991;29;20103;-70
2023/05/10 01:34:02;;;;;;;0.70;0.70;;;;;;;6.07;74.18;94755.03;4926242;29;20579;-70
2023/05/10 01:36:58;;;;;;;3.13;0.80;;;;;;;6.17;74.15;94758.31;4920776;29;20057;-70
2023/05/10 01:39:25;;;;;;;0.82;0.82;;;;;;;6.44;73.03;94766.78;4920423;29;20043;-70
2023/05/10 01:41:54;;;;;;;0.70;0.70;;;;;;;6.00;73.97;94773.38;4909573;29;20039;-70
2023/05/10 01:44:52;;;;;;;0.80;0.80;;;;;;;6.12;73.99;94757.97;4905510;29;20110;-70
2023/05/10 01:47:25;;;;;;;1.13;1.13;;;;;;;6.19;73.85;94764.22;4881240;29;20055;-70
2023/05/10 01:49:53;;;;;;;0.80;0.80;;;;;;;6.27;73.27;94762.53;4924157;29;20483;-70
2023/05/10 01:52:20;;;;;;;0.80;0.75;;;;;;;5.80;74.64;94767.66;4933997;29;20205;-70
2023/05/10 01:54:50;;;;;;;0.68;0.68;;;;;;;5.97;74.12;94766.63;4932869;29;20071;-70
2023/05/10 01:57:15;;;;;;;0.70;0.70;;;;;;;6.09;73.53;94767.06;4933907;29;20122;-70
2023/05/10 01:59:41;;;;;;;0.90;0.90;;;;;;;6.12;73.29;94764.09;4917075;29;20035;-70
2023/05/10 02:02:06;;;;;;;1.20;1.10;;;;;;;6.45;72.67;94767.59;4932544;28;20509;-70
2023/05/10 02:04:32;;;;;;;1.20;1.20;;;;;;;6.96;70.83;94761.88;4910511;28;20100;-70
2023/05/10 02:06:57;;;;;;;1.52;1.00;;;;;;;6.22;72.84;94763.88;4929703;28;20015;-70
2023/05/10 02:09:23;;;;;;;0.90;0.90;;;;;;;6.36;72.26;94767.63;4945662;28;20522;-70
2023/05/10 02:11:48;;;;;;;0.85;0.85;;;;;;;6.49;71.88;94772.41;4935699;28;20027;-70
2023/05/10 02:14:14;;;;;;;0.90;0.90;;;;;;;6.25;71.32;94779.41;4928134;28;20034;-70
2023/05/10 02:16:39;;;;;;;0.85;0.70;;;;;;;6.36;71.55;94772.09;4929462;28;20154;-69
2023/05/10 02:19:05;;;;;;;1.50;0.80;;;;;;;6.63;70.99;94772.63;4947635;28;20488;-70
2023/05/10 02:21:30;;;;;;;1.30;0.90;;;;;;;7.33;68.74;94766.53;4945296;28;20047;-70
2023/05/10 02:23:56;;;;;;;0.80;0.80;;;;;;;7.57;67.59;94775.28;4944406;28;20023;-70
2023/05/10 02:26:21;;;;;;;1.00;1.00;;;;;;;7.65;67.70;94775.22;4950070;28;20404;-70
2023/05/10 02:28:47;;;;;;;1.23;1.20;;;;;;;7.84;66.49;94775.72;4949214;28;20253;-70
2023/05/10 02:31:12;;;;;;;1.40;1.30;;;;;;;7.38;68.10;94780.09;4958584;28;20042;-70
2023/05/10 02:33:41;;;;;;;1.52;1.15;;;;;;;7.45;67.60;94775.69;4954466;28;20661;-70
2023/05/10 02:36:07;;;;;;;1.27;1.27;;;;;;;7.64;65.91;94778.84;4910502;28;20035;-70
2023/05/10 02:38:32;;;;;;;1.20;1.20;;;;;;;7.73;66.92;94772.50;4941017;28;20692;-70
2023/05/10 02:40:58;;;;;;;4.28;1.30;;;;;;;7.70;66.60;94780.78;4940834;28;20208;-70
2023/05/10 02:43:24;;;;;;;1.52;1.35;;;;;;;7.71;66.39;94778.94;4925811;28;20221;-70
2023/05/10 02:45:49;;;;;;;1.58;1.48;;;;;;;7.91;65.90;94774.00;4924664;28;20039;-71
2023/05/10 02:48:15;;;;;;;3.47;1.80;;;;;;;7.98;65.55;94780.22;4925078;28;20038;-71
2023/05/10 02:50:43;;;;;;;4.85;1.58;;;;;;;7.91;65.62;94776.63;4926076;28;20046;-71
2023/05/10 02:53:11;;;;;;;8.20;2.17;;;;;;;7.91;66.43;94781.94;4925613;28;20515;-70
2023/05/10 02:55:37;;;;;;;9.70;1.90;;;;;;;7.76;65.88;94787.19;4927879;28;20056;-70
2023/05/10 02:58:03;;;;;;;20.50;2.47;;;;;;;7.25;67.98;94781.50;4924812;28;20092;-71
2023/05/10 03:00:29;;;;;;;88.30;3.75;;;;;;;7.13;69.30;94783.75;4959728;28;20403;-71
2023/05/10 03:02:54;;;;;;;2.33;2.13;;;;;;;7.00;69.59;94788.78;4932775;28;20403;-70
2023/05/10 03:05:20;;;;;;;2.42;2.22;;;;;;;7.21;69.20;94777.56;4888087;29;20049;-70
2023/05/10 03:07:45;;;;;;;2.60;2.15;;;;;;;7.25;69.17;94781.50;4908150;29;20473;-70
2023/05/10 03:10:11;;;;;;;4.78;2.90;;;;;;;7.34;68.38;94784.09;4922006;29;20490;-70
2023/05/10 03:12:52;;;;;;;3.30;2.72;;;;;;;7.83;66.84;94782.03;4892754;29;20058;-70
2023/05/10 03:15:26;;;;;;;5.85;2.88;;;;;;;8.19;66.04;94778.66;4894680;29;20448;-70
2023/05/10 03:17:55;;;;;;;4.82;3.08;;;;;;;8.30;65.83;94777.38;4907460;29;20485;-70
2023/05/10 03:20:33;;;;;;;3.03;2.75;;;;;;;8.52;64.69;94783.56;4919716;29;20030;-70
2023/05/10 03:23:11;;;;;;;2.00;1.90;;;;;;;8.50;63.96;94782.13;4904598;29;20035;-70
2023/05/10 03:25:37;;;;;;;1.92;1.83;;;;;;;8.65;63.90;94790.88;4911081;29;20069;-70
2023/05/10 03:28:02;;;;;;;1.67;1.58;;;;;;;8.02;65.68;94792.09;4909142;29;20066;-70
2023/05/10 03:30:28;;;;;;;1.92;1.83;;;;;;;8.34;64.95;94793.75;4912415;29;20074;-70
2023/05/10 03:32:54;;;;;;;2.03;1.50;;;;;;;8.23;65.20;94801.13;4909797;29;20431;-70
2023/05/10 03:35:19;;;;;;;1.40;1.38;;;;;;;8.13;65.71;94808.56;4894423;29;20037;-70
2023/05/10 03:37:44;;;;;;;1.60;1.50;;;;;;;8.15;65.02;94801.22;4893213;29;20040;-70
2023/05/10 03:40:10;;;;;;;1.70;1.60;;;;;;;8.49;64.87;94797.19;4905996;29;20125;-70
2023/05/10 03:42:35;;;;;;;1.58;1.48;;;;;;;8.15;65.12;94803.88;4927189;29;20036;-70
2023/05/10 03:45:01;;;;;;;1.70;1.60;;;;;;;7.68;66.83;94804.00;4927490;29;20073;-70
2023/05/10 03:47:26;;;;;;;2.13;1.88;;;;;;;7.90;66.35;94801.50;4894772;29;20595;-70
2023/05/10 03:49:52;;;;;;;1.42;1.33;;;;;;;7.76;66.95;94811.06;4924760;29;20587;-70
2023/05/10 03:52:17;;;;;;;2.08;1.80;;;;;;;7.69;66.75;94807.47;4921721;29;20535;-70
2023/05/10 03:54:43;;;;;;;2.08;1.98;;;;;;;8.02;66.29;94805.34;4922416;29;20079;-70
2023/05/10 03:57:09;;;;;;;1.92;1.83;;;;;;;8.00;66.41;94817.13;4918259;29;20424;-70
2023/05/10 03:59:35;;;;;;;2.15;2.05;;;;;;;7.66;66.30;94819.25;4932686;29;20659;-70
2023/05/10 04:02:00;;;;;;;3.45;2.10;;;;;;;8.01;66.26;94826.72;4914142;28;20048;-70
2023/05/10 04:04:25;;;;;;;3.70;1.90;;;;;;;7.62;67.28;94817.97;4919605;28;20101;-70
2023/05/10 04:06:51;;;;;;;2.38;2.17;;;;;;;7.94;66.29;94818.69;4952433;28;20591;-70
2023/05/10 04:09:17;;;;;;;1.55;1.45;;;;;;;7.85;66.39;94815.28;4940735;28;20044;-70
2023/05/10 04:11:42;;;;;;;1.42;1.33;;;;;;;7.54;67.06;94814.38;4925489;28;20035;-70
2023/05/10 04:14:08;;;;;;;2.75;1.80;;;;;;;7.92;66.55;94828.63;4942989;28;20435;-70
2023/05/10 04:16:33;;;;;;;1.67;1.10;;;;;;;7.17;68.22;94834.50;4944688;28;20172;-70
2023/05/10 04:18:59;;;;;;;4.00;1.60;;;;;;;6.86;69.52;94824.75;4927314;28;20043;-70
2023/05/10 04:21:25;;;;;;;1.70;1.33;;;;;;;6.94;69.85;94819.44;4939415;28;20218;-70
2023/05/10 04:23:50;;;;;;;1.50;1.40;;;;;;;6.96;68.64;94830.66;4912168;28;20207;-70
2023/05/10 04:26:15;;;;;;;2.80;1.63;;;;;;;7.28;68.47;94822.72;4929603;28;20042;-70
2023/05/10 04:28:41;;;;;;;3.17;1.80;;;;;;;7.65;66.88;94831.66;4926162;28;20050;-70
2023/05/10 04:31:07;;;;;;;1.75;1.63;;;;;;;7.98;66.24;94830.56;4929574;28;20078;-70
2023/05/10 04:33:33;;;;;;;4.80;1.83;;;;;;;8.43;63.71;94825.28;4910320;28;20047;-70
2023/05/10 04:35:59;;;;;;;2.05;1.50;;;;;;;8.59;63.65;94833.22;4907009;28;20075;-71
2023/05/10 04:38:24;;;;;;;1.80;1.70;;;;;;;8.77;62.52;94825.69;4943708;28;20491;-70
2023/05/10 04:40:50;;;;;;;1.33;1.20;;;;;;;8.57;62.81;94820.97;4939816;28;20027;-71
2023/05/10 04:43:15;;;;;;;1.40;1.40;;;;;;;8.58;62.62;94821.81;4928581;28;20031;-70
2023/05/10 04:45:41;;;;;;;1.27;1.17;;;;;;;8.58;62.73;94821.81;4947086;28;20077;-70
2023/05/10 04:48:07;;;;;;;2.05;1.48;;;;;;;8.59;63.25;94823.44;4930297;28;20221;-70
2023/05/10 04:50:32;;;;;;;2.20;1.60;;;;;;;8.73;62.48;94828.91;4927454;28;20066;-71
2023/05/10 04:52:58;;;;;;;1.40;1.30;;;;;;;8.76;62.29;94833.84;4948405;28;20041;-70
2023/05/10 04:55:23;;;;;;;1.88;1.77;;;;;;;8.67;61.86;94841.09;4955194;28;20109;-70
2023/05/10 04:57:48;;;;;;;2.38;1.73;;;;;;;8.39;63.89;94837.28;4950368;28;20045;-71
2023/05/10 05:00:14;;;;;;;1.45;1.35;;;;;;;7.57;66.60;94842.34;4928172;28;20035;-71
2023/05/10 05:02:46;;;;;;;1.50;1.42;;;;;;;7.01;69.10;94836.25;4906962;28;20054;-71
2023/05/10 05:05:12;;;;;;;1.42;1.33;;;;;;;6.73;70.49;94847.31;4923869;28;20562;-70
2023/05/10 05:07:38;;;;;;;1.98;1.60;;;;;;;6.86;70.44;94845.94;4923670;28;20043;-70
2023/05/10 05:10:07;;;;;;;1.60;1.50;;;;;;;7.17;69.83;94845.09;4938686;28;20160;-70
2023/05/10 05:12:33;;;;;;;1.67;1.58;;;;;;;7.58;68.06;94845.81;4924594;28;20507;-70
2023/05/10 05:14:58;;;;;;;1.33;1.23;;;;;;;7.44;68.62;94850.06;4923460;28;20180;-70
2023/05/10 05:17:23;;;;;;;1.50;1.40;;;;;;;7.71;68.25;94853.13;4926433;28;20039;-70
2023/05/10 05:19:49;;;;;;;1.30;1.20;;;;;;;8.13;66.35;94853.63;4927152;28;20113;-70
2023/05/10 05:22:14;;;;;;;0.88;0.88;;;;;;;7.99;66.68;94861.38;4926397;28;20039;-70
2023/05/10 05:24:40;;;;;;;1.05;1.05;;;;;;;7.32;68.79;94866.38;4943876;28;20082;-70
2023/05/10 05:27:05;;;;;;;0.90;0.90;;;;;;;7.11;69.86;94875.72;4942491;28;20481;-71
2023/05/10 05:29:31;;;;;;;1.85;1.40;;;;;;;7.32;69.40;94876.13;4929115;28;20101;-70
2023/05/10 05:31:56;;;;;;;1.60;1.50;;;;;;;7.32;69.00;94871.66;4931758;28;20547;-70
2023/05/10 05:34:22;;;;;;;1.45;1.38;;;;;;;7.48;68.80;94878.66;4927505;28;20436;-70
2023/05/10 05:36:47;;;;;;;1.40;1.30;;;;;;;7.27;68.71;94890.72;4947185;28;20054;-70
2023/05/10 05:39:13;;;;;;;1.65;1.52;;;;;;;7.36;68.64;94882.72;4911295;28;20088;-70
2023/05/10 05:41:38;;;;;;;1.30;1.30;;;;;;;7.48;68.17;94891.88;4927740;28;20047;-70
2023/05/10 05:44:04;;;;;;;1.40;1.30;;;;;;;7.26;68.73;94897.00;4939725;28;20035;-70
2023/05/10 05:46:29;;;;;;;1.88;1.77;;;;;;;7.72;67.62;94892.72;4943982;28;20141;-70
2023/05/10 05:48:55;;;;;;;1.88;1.77;;;;;;;7.75;66.90;94884.41;4926927;28;20034;-70
2023/05/10 05:51:20;;;;;;;2.55;2.20;;;;;;;7.98;66.37;94882.75;4948041;28;20031;-70
2023/05/10 05:53:45;;;;;;;2.65;2.05;;;;;;;7.87;66.43;94894.63;4941836;28;20039;-70
2023/05/10 05:56:11;;;;;;;2.10;1.95;;;;;;;8.10;65.86;94891.94;4946430;28;20034;-70
2023/05/10 05:58:36;;;;;;;2.00;1.90;;;;;;;8.52;64.57;94892.34;4927393;28;20027;-70
2023/05/10 06:01:01;;;;;;;2.50;2.05;;;;;;;8.33;64.88;94898.19;4929978;28;20358;-71
2023/05/10 06:03:27;;;;;;;2.80;2.40;;;;;;;8.86;63.56;94907.88;4946500;28;20043;-70
2023/05/10 06:05:52;;;;;;;2.30;2.10;;;;;;;8.82;63.48;94902.97;4943067;28;20433;-70
2023/05/10 06:08:18;;;;;;;1.95;1.85;;;;;;;8.76;63.38;94903.69;4930380;28;20097;-71
2023/05/10 06:10:44;;;;;;;1.90;1.80;;;;;;;8.51;63.79;94911.94;4943877;28;20043;-71
2023/05/10 06:13:09;;;;;;;2.45;2.10;;;;;;;8.59;64.52;94904.84;4947090;28;20194;-70
2023/05/10 06:15:35;;;;;;;2.00;1.80;;;;;;;8.78;63.71;94903.50;4941220;28;20670;-71
2023/05/10 06:18:00;;;;;;;2.63;2.00;;;;;;;8.88;63.63;94911.97;4947201;28;20596;-71
2023/05/10 06:20:26;;;;;;;3.75;2.10;;;;;;;9.42;62.03;94915.31;4932926;28;20408;-70
2023/05/10 06:22:51;;;;;;;3.60;1.85;;;;;;;9.74;60.53;94919.50;4946327;28;20604;-71
2023/05/10 06:25:17;;;;;;;5.43;1.70;;;;;;;9.24;60.78;94917.56;4946262;28;20041;-71
2023/05/10 06:27:43;;;;;;;2.20;2.00;;;;;;;9.74;61.00;94925.66;4941480;28;20039;-71
2023/05/10 06:30:09;;;;;;;2.22;2.03;;;;;;;10.16;59.79;94917.06;4925887;28;20571;-71
2023/05/10 06:32:35;;;;;;;2.47;1.95;;;;;;;10.10;58.52;94924.78;4946280;28;20550;-71
2023/05/10 06:35:00;;;;;;;2.20;2.00;;;;;;;10.16;58.26;94923.19;4924963;28;20039;-71
2023/05/10 06:37:25;;;;;;;2.25;2.00;;;;;;;10.22;58.75;94919.75;4926373;28;20094;-71
2023/05/10 06:39:51;;;;;;;2.22;2.03;;;;;;;9.41;61.16;94918.97;4911136;28;20407;-71
2023/05/10 06:42:16;;;;;;;2.60;2.17;;;;;;;9.50;60.96;94922.34;4944110;28;20047;-71
2023/05/10 06:44:43;;;;;;;2.30;2.10;;;;;;;9.36;61.73;94925.88;4940547;28;20034;-71
2023/05/10 06:47:08;;;;;;;2.80;2.50;;;;;;;9.59;61.52;94923.88;4945459;28;20027;-71
2023/05/10 06:49:34;;;;;;;2.67;2.40;;;;;;;9.73;59.64;94929.31;4929116;28;20031;-71
2023/05/10 06:51:59;;;;;;;4.65;2.70;;;;;;;9.89;59.30;94936.22;4927623;28;20268;-71
2023/05/10 06:54:24;;;;;;;2.67;2.40;;;;;;;10.25;59.08;94928.34;4945205;28;20050;-71
2023/05/10 06:56:50;;;;;;;2.92;2.63;;;;;;;10.26;58.45;94933.47;4952551;28;20225;-71
2023/05/10 06:59:16;;;;;;;2.58;2.30;;;;;;;9.90;59.86;94940.53;4946767;28;20019;-71
2023/05/10 07:01:42;;;;;;;2.92;2.40;;;;;;;10.27;57.79;94936.97;4933406;28;20034;-71
2023/05/10 07:04:07;;;;;;;2.55;2.35;;;;;;;9.96;59.24;94947.72;4932938;28;20031;-70
2023/05/10 07:06:33;;;;;;;2.83;2.50;;;;;;;10.12;59.16;94939.69;4943463;28;20039;-71
2023/05/10 07:08:58;;;;;;;2.60;1.95;;;;;;;10.06;58.63;94949.28;4926609;28;20047;-70
2023/05/10 07:11:24;;;;;;;2.40;2.20;;;;;;;10.35;58.16;94950.97;4912275;28;20072;-71
2023/05/10 07:13:49;;;;;;;1.90;1.80;;;;;;;10.36;57.83;94952.59;4944427;28;20120;-70
2023/05/10 07:16:15;;;;;;;1.73;1.63;;;;;;;10.41;57.89;94945.88;4916807;28;20046;-71
2023/05/10 07:18:40;;;;;;;1.38;1.38;;;;;;;10.29;58.01;94959.72;4936616;28;20031;-70
2023/05/10 07:21:06;;;;;;;1.70;1.60;;;;;;;10.19;58.18;94959.19;4935805;28;20050;-71
2023/05/10 07:23:31;;;;;;;1.70;1.60;;;;;;;10.03;58.83;94963.75;4946542;28;20122;-71
2023/05/10 07:25:57;;;;;;;2.20;2.00;;;;;;;10.13;57.85;94960.00;4911629;28;20043;-71
2023/05/10 07:28:22;;;;;;;2.90;2.60;;;;;;;10.17;58.37;94963.91;4929466;28;20480;-71
2023/05/10 07:30:48;;;;;;;3.75;2.90;;;;;;;9.83;58.83;94971.56;4910090;28;20039;-71
2023/05/10 07:33:13;;;;;;;4.85;3.50;;;;;;;9.30;60.79;94970.78;4936857;28;20370;-71
2023/05/10 07:35:39;;;;;;;2.20;1.73;;;;;;;8.48;63.36;94970.66;4939634;28;20049;-71
2023/05/10 07:38:04;;;;;;;1.90;1.70;;;;;;;8.79;62.73;94971.50;4938941;28;20704;-71
2023/05/10 07:40:30;;;;;;;4.00;2.35;;;;;;;8.91;62.43;94979.84;4944499;28;20060;-71
2023/05/10 07:42:55;;;;;;;3.58;3.22;;;;;;;9.20;61.95;94972.88;4938622;28;20047;-71
2023/05/10 07:45:20;;;;;;;6.15;4.85;;;;;;;8.90;62.83;94973.69;4941423;28;20043;-71
2023/05/10 07:47:46;;;;;;;5.57;4.18;;;;;;;8.22;65.11;94993.06;4941791;28;20039;-71
2023/05/10 07:50:11;;;;;;;5.63;3.75;;;;;;;8.54;63.38;94975.22;4940533;28;20031;-71
2023/05/10 07:52:37;;;;;;;7.13;3.83;;;;;;;8.33;64.75;94980.41;4939734;28;20039;-70
2023/05/10 07:55:02;;;;;;;4.60;3.85;;;;;;;8.42;63.84;94990.75;4944092;28;20453;-71
2023/05/10 07:57:28;;;;;;;4.93;4.18;;;;;;;9.06;62.81;94982.50;4945024;28;20074;-71
2023/05/10 07:59:53;;;;;;;7.10;3.92;;;;;;;9.11;62.08;94996.06;4940315;28;20038;-71
2023/05/10 08:02:18;;;;;;;6.43;4.28;;;;;;;8.90;62.32;94988.78;4939300;28;20531;-71
2023/05/10 08:04:44;;;;;;;7.75;4.45;;;;;;;9.24;62.25;94984.78;4936352;28;20035;-69
2023/05/10 08:07:10;;;;;;;7.97;5.28;;;;;;;8.99;62.41;94981.59;4940771;28;20035;-72
2023/05/10 08:09:35;;;;;;;8.40;4.82;;;;;;;9.27;61.74;94984.41;4939988;28;20046;-71
2023/05/10 08:12:01;;;;;;;8.85;5.50;;;;;;;9.06;62.18;94988.66;4936101;28;20422;-71
2023/05/10 08:14:28;;;;;;;8.88;6.07;;;;;;;9.73;60.89;94987.81;4941137;28;20396;-71
2023/05/10 08:16:53;;;;;;;9.10;5.22;;;;;;;9.03;62.44;94991.66;4942965;28;20610;-71
2023/05/10 08:19:21;;;;;;;8.60;5.30;;;;;;;9.31;61.91;94991.00;4939521;28;20027;-71
2023/05/10 08:21:46;;;;;;;8.75;6.55;;;;;;;9.33;62.04;94998.78;4946666;28;20448;-71
2023/05/10 08:24:11;;;;;;;8.88;6.03;;;;;;;9.98;60.39;94992.75;4945208;28;20038;-71
2023/05/10 08:26:37;;;;;;;9.23;6.47;;;;;;;10.69;58.26;94999.13;4940764;28;20470;-71
2023/05/10 08:29:02;;;;;;;8.88;5.85;;;;;;;10.00;59.13;95011.19;4944169;28;20043;-70
2023/05/10 08:31:28;;;;;;;9.32;5.78;;;;;;;9.26;62.06;94998.72;4940985;28;20321;-71
2023/05/10 08:33:53;;;;;;;7.75;5.50;;;;;;;9.50;61.41;94999.41;4938375;28;20043;-71
2023/05/10 08:36:23;;;;;;;7.15;5.50;;;;;;;9.10;62.59;95009.50;4944052;28;20472;-70
2023/05/10 08:38:52;;;;;;;9.18;5.70;;;;;;;9.27;61.97;95010.97;4942258;28;20122;-71
2023/05/10 08:41:20;;;;;;;9.57;5.10;;;;;;;9.15;62.23;95004.50;4941377;28;20035;-71
2023/05/10 08:43:46;;;;;;;7.75;5.00;;;;;;;8.62;63.26;95014.13;4942296;28;20060;-71
2023/05/10 08:46:15;;;;;;;6.45;5.20;;;;;;;9.08;62.70;95012.38;4927325;28;20139;-71
2023/05/10 08:48:41;;;;;;;6.93;5.03;;;;;;;9.35;61.30;95019.84;4924959;28;20043;-70
2023/05/10 08:51:06;;;;;;;6.10;4.38;;;;;;;9.68;60.59;95014.09;4928407;28;20042;-71
2023/05/10 08:53:32;;;;;;;8.52;5.68;;;;;;;9.40;61.45;95010.31;4939929;28;20114;-71
2023/05/10 08:55:58;;;;;;;7.38;4.85;;;;;;;9.98;59.66;95014.88;4925883;28;20039;-71
2023/05/10 08:58:23;;;;;;;7.53;5.72;;;;;;;9.89;59.47;95020.50;4920249;28;20094;-71
2023/05/10 09:00:50;;;;;;;5.93;4.68;;;;;;;9.70;59.57;95025.38;4927549;28;20403;-70
2023/05/10 09:03:16;;;;;;;5.82;4.35;;;;;;;10.07;58.74;95018.22;4930336;28;20389;-71
2023/05/10 09:05:41;;;;;;;5.03;4.07;;;;;;;9.26;60.51;95027.94;4939881;28;20244;-71
2023/05/10 09:08:08;;;;;;;5.05;3.72;;;;;;;9.63;58.94;95029.81;4917147;28;20409;-71
2023/05/10 09:10:33;;;;;;;5.68;4.35;;;;;;;10.00;58.87;95025.31;4935283;28;20043;-70
2023/05/10 09:12:59;;;;;;;12.32;8.93;;;;;;;10.17;58.97;95030.41;4931359;28;20039;-70
2023/05/10 09:15:24;;;;;;;12.50;8.27;;;;;;;10.03;58.46;95027.56;4945355;28;20035;-70
2023/05/10 09:17:50;;;;;;;8.52;4.40;;;;;;;10.41;57.79;95037.19;4939293;28;20035;-70
2023/05/10 09:20:17;;;;;;;5.65;4.10;;;;;;;10.96;56.11;95030.44;4941564;28;20396;-70
2023/05/10 09:22:42;;;;;;;5.90;4.40;;;;;;;10.96;55.89;95028.59;4943714;28;20434;-70
2023/05/10 09:25:12;;;;;;;5.68;4.43;;;;;;;11.48;54.70;95038.94;4940833;28;20444;-70
2023/05/10 09:27:39;;;;;;;6.18;3.65;;;;;;;10.41;57.06;95053.16;4938701;28;20118;-70
2023/05/10 09:30:05;;;;;;;9.93;4.22;;;;;;;9.10;61.23;95044.03;4938497;28;20042;-71
2023/05/10 09:32:44;;;;;;;3.70;2.80;;;;;;;8.83;62.38;95057.72;4941842;28;20542;-72
2023/05/10 09:35:13;;;;;;;2.30;1.80;;;;;;;8.69;63.47;95059.34;4922216;28;20078;-72
2023/05/10 09:37:41;;;;;;;1.45;1.35;;;;;;;8.34;64.68;95056.31;4930367;28;20043;-72
2023/05/10 09:40:11;;;;;;;3.97;2.83;;;;;;;9.16;62.84;95056.59;4933720;28;20450;-72
2023/05/10 09:42:36;;;;;;;2.20;1.60;;;;;;;9.35;61.55;95057.06;4942336;28;20555;-72
2023/05/10 09:45:05;;;;;;;2.22;2.03;;;;;;;9.42;61.71;95061.44;4941459;28;20041;-71
2023/05/10 09:47:34;;;;;;;1.75;1.27;;;;;;;8.22;65.08;95062.03;4941058;28;20031;-72
2023/05/10 09:50:04;;;;;;;1.02;1.02;;;;;;;8.23;64.89;95055.72;4944989;28;20039;-72
2023/05/10 09:52:30;;;;;;;1.52;1.42;;;;;;;8.29;65.58;95062.97;4943651;28;20363;-72
2023/05/10 09:54:56;;;;;;;1.55;1.45;;;;;;;8.23;66.43;95061.00;4946422;28;20411;-72
2023/05/10 09:57:22;;;;;;;2.10;1.88;;;;;;;8.59;64.70;95062.25;4941606;28;20039;-72
2023/05/10 09:59:47;;;;;;;3.83;1.90;;;;;;;9.06;62.61;95063.00;4946649;28;20034;-72
2023/05/10 10:02:13;;;;;;;1.40;1.30;;;;;;;9.77;61.56;95058.19;4944651;28;20573;-71
2023/05/10 10:04:39;;;;;;;4.07;1.60;;;;;;;9.58;61.10;95070.22;4947384;28;20041;-71
2023/05/10 10:07:05;;;;;;;2.08;1.50;;;;;;;9.46;61.88;95067.22;4947851;28;20708;-70
2023/05/10 10:09:31;;;;;;;1.50;1.40;;;;;;;9.98;60.30;95072.53;4946943;28;20046;-70
2023/05/10 10:11:56;;;;;;;1.73;1.63;;;;;;;10.49;58.74;95068.16;4945239;28;20579;-70
2023/05/10 10:14:23;;;;;;;1.88;1.77;;;;;;;10.77;58.09;95072.69;4947436;28;20590;-71
2023/05/10 10:16:49;;;;;;;1.70;1.10;;;;;;;10.16;57.86;95069.47;4911270;28;20504;-70
2023/05/10 10:19:15;;;;;;;3.47;2.25;;;;;;;10.63;58.23;95071.75;4915190;28;20069;-70
2023/05/10 10:21:40;;;;;;;1.70;1.60;;;;;;;10.68;57.11;95073.84;4942619;28;20054;-70
2023/05/10 10:24:06;;;;;;;2.05;1.27;;;;;;;10.83;55.82;95073.75;4911243;28;20345;-70
2023/05/10 10:26:33;;;;;;;1.42;1.33;;;;;;;11.04;55.67;95067.56;4952697;28;20034;-71
2023/05/10 10:29:22;;;;;;;1.60;1.50;;;;;;;10.17;56.65;95070.31;4930395;28;20026;-70
2023/05/10 10:32:02;;;;;;;1.35;1.30;;;;;;;10.86;56.94;95076.88;4930318;28;20027;-71
2023/05/10 10:34:28;;;;;;;1.90;1.52;;;;;;;11.32;55.84;95077.41;4927645;28;20377;-70
2023/05/10 10:36:54;;;;;;;4.88;3.67;;;;;;;12.02;54.27;95068.50;4924516;28;20039;-70
2023/05/10 10:39:20;;;;;;;4.72;1.77;;;;;;;12.19;52.29;95067.31;4926052;28;20574;-71
2023/05/10 10:41:50;;;;;;;1.63;1.48;;;;;;;12.13;52.73;95075.09;4929845;28;20105;-70
2023/05/10 10:44:29;;;;;;;3.70;3.13;;;;;;;11.25;55.64;95077.34;4942535;28;20050;-70
2023/05/10 10:47:02;;;;;;;1.80;1.70;;;;;;;11.77;53.99;95073.53;4942157;28;20122;-70
2023/05/10 10:49:28;;;;;;;2.05;1.58;;;;;;;12.10;52.59;95075.50;4939530;28;20047;-70
2023/05/10 10:52:29;;;;;;;2.05;1.50;;;;;;;12.08;52.23;95077.56;4942066;28;20031;-68
2023/05/10 10:55:10;;;;;;;5.60;2.00;;;;;;;11.31;54.51;95081.09;4930562;28;20035;-67
2023/05/10 10:57:46;;;;;;;2.35;1.40;;;;;;;10.90;56.74;95087.13;4939884;28;20074;-67
2023/05/10 11:00:21;;;;;;;2.58;1.30;;;;;;;10.44;57.52;95084.69;4923163;28;20034;-67
2023/05/10 11:02:51;;;;;;;2.33;1.25;;;;;;;9.97;58.17;95081.53;4939971;28;20055;-69
2023/05/10 11:05:28;;;;;;;1.58;1.10;;;;;;;10.60;57.21;95083.59;4941325;28;20070;-67
2023/05/10 11:07:58;;;;;;;1.87;1.30;;;;;;;10.36;57.00;95093.63;4930627;28;21668;-67
2023/05/10 11:10:23;;;;;;;1.20;1.08;;;;;;;9.35;60.14;95096.91;4932894;28;21969;-67
2023/05/10 11:12:52;;;;;;;1.27;0.90;;;;;;;9.01;61.93;95093.75;4933906;28;20035;-67
2023/05/10 11:15:18;;;;;;;3.30;0.73;;;;;;;8.69;61.59;95104.44;4943707;28;20396;-67
2023/05/10 11:17:43;;;;;;;0.38;0.28;;;;;;;8.22;63.01;95104.47;4943092;28;20035;-68
2023/05/10 11:20:09;;;;;;;0.25;0.25;;;;;;;7.88;64.84;95105.63;4943426;28;20403;-67
2023/05/10 11:22:53;;;;;;;0.30;0.30;;;;;;;8.07;64.83;95101.75;4926161;28;20280;-66
2023/05/10 11:25:19;;;;;;;0.30;0.30;;;;;;;8.11;64.25;95103.03;4939819;28;20223;-67
2023/05/10 11:27:45;;;;;;;0.35;0.35;;;;;;;7.86;65.91;95105.81;4925253;28;20543;-66
2023/05/10 11:30:11;;;;;;;0.82;0.82;;;;;;;8.62;63.35;95106.16;4924898;28;20222;-66
2023/05/10 11:32:39;;;;;;;11.68;4.80;;;;;;;8.84;62.69;95107.13;4937740;28;20234;-66
2023/05/10 11:35:11;;;;;;;10.10;4.63;;;;;;;8.91;62.33;95107.25;4943957;28;20058;-65
2023/05/10 11:37:41;;;;;;;0.65;0.65;;;;;;;8.78;59.98;95113.97;4941074;28;20467;-65